Terminal Aerodrome Forecast
Issued by NWS

Current Version | Previous Version | Text Only | Print | Product List | Glossary On
Versions: 1 2 3 4 5 6 7 8 9 10 11 12 13 14
000
FTUS45 KPSR 201100 RRA
TAFBLH
TAF
KBLH 201144Z 2012/2112 VRB05KT P6SM SCT090
      TEMPO 2013/2017 BKN090
     FM201800 17006KT P6SM SCT100
     FM210300 23005KT P6SM FEW100 SCT250=

USA.gov is the U.S. government's official web portal to all federal, state and local government web resources and services.